createdAt,value
2024-05-09T00:00:06.774Z,36.22
2024-05-09T00:01:05.713Z,36.22
2024-05-09T00:02:05.648Z,36.20
2024-05-09T00:03:05.665Z,36.20
2024-05-09T00:04:05.743Z,36.21
2024-05-09T00:05:05.757Z,36.20
2024-05-09T00:06:05.880Z,36.22
2024-05-09T00:07:05.627Z,36.19
2024-05-09T00:08:05.721Z,36.21
2024-05-09T00:09:05.635Z,36.19
2024-05-09T00:10:09.222Z,36.22
2024-05-09T00:11:06.815Z,36.23
2024-05-09T00:12:05.749Z,36.22
2024-05-09T00:13:05.752Z,36.20
2024-05-09T00:14:05.710Z,36.19
2024-05-09T00:15:05.688Z,36.20
2024-05-09T00:16:05.628Z,36.22
2024-05-09T00:17:05.849Z,36.21
2024-05-09T00:18:06.374Z,36.21
2024-05-09T00:19:05.730Z,36.21
2024-05-09T00:20:14.254Z,36.20
2024-05-09T00:21:06.747Z,36.22
2024-05-09T00:22:05.665Z,36.21
2024-05-09T00:23:05.713Z,36.20
2024-05-09T00:24:05.663Z,36.21
2024-05-09T00:25:05.671Z,36.20
2024-05-09T00:26:05.736Z,36.21
2024-05-09T00:27:05.769Z,36.21
2024-05-09T00:28:05.679Z,36.19
2024-05-09T00:29:05.660Z,36.20
2024-05-09T00:30:07.293Z,36.20
2024-05-09T00:31:05.681Z,36.21
2024-05-09T00:32:05.694Z,36.19
2024-05-09T00:33:06.944Z,36.17
2024-05-09T00:34:06.077Z,36.21
2024-05-09T00:35:05.948Z,36.19
2024-05-09T00:36:05.984Z,36.19
2024-05-09T00:37:06.079Z,36.19
2024-05-09T00:38:06.419Z,36.16
2024-05-09T00:39:06.168Z,36.17
2024-05-09T00:40:07.610Z,36.17
2024-05-09T00:41:07.269Z,36.18
2024-05-09T00:42:06.208Z,36.20
2024-05-09T00:43:06.275Z,36.20
2024-05-09T00:44:06.211Z,36.18
2024-05-09T00:45:06.202Z,36.20
2024-05-09T00:46:06.196Z,36.20
2024-05-09T00:47:06.360Z,36.18
2024-05-09T00:48:06.796Z,36.18
2024-05-09T00:49:06.275Z,36.18
2024-05-09T00:50:10.112Z,36.17
2024-05-09T00:51:07.290Z,36.20
2024-05-09T00:52:06.248Z,36.16
2024-05-09T00:53:06.660Z,36.17
2024-05-09T00:54:06.208Z,36.16
2024-05-09T00:55:06.227Z,36.15
2024-05-09T00:56:06.232Z,36.16
2024-05-09T00:57:06.272Z,36.18
2024-05-09T00:58:06.198Z,36.17
2024-05-09T00:59:06.238Z,36.19
2024-05-09T01:00:12.202Z,36.18
2024-05-09T01:01:07.292Z,36.18
2024-05-09T01:02:06.302Z,36.18
2024-05-09T01:03:06.437Z,36.17
2024-05-09T01:04:06.435Z,36.15
2024-05-09T01:05:06.342Z,36.20
2024-05-09T01:06:06.244Z,36.18
2024-05-09T01:07:06.255Z,36.18
2024-05-09T01:08:06.287Z,36.17
2024-05-09T01:09:06.253Z,36.18
2024-05-09T01:10:11.707Z,36.15
2024-05-09T01:11:07.350Z,36.17
2024-05-09T01:12:06.313Z,36.17
2024-05-09T01:13:06.726Z,36.15
2024-05-09T01:14:06.264Z,36.16
2024-05-09T01:15:06.244Z,36.15
2024-05-09T01:16:06.294Z,36.15
2024-05-09T01:17:06.355Z,36.16
2024-05-09T01:18:06.475Z,36.17
2024-05-09T01:19:06.380Z,36.17
2024-05-09T01:20:10.453Z,36.19
2024-05-09T01:21:06.275Z,36.17
2024-05-09T01:22:06.269Z,36.17
2024-05-09T01:23:06.324Z,36.17
2024-05-09T01:24:06.248Z,36.15
2024-05-09T01:25:06.279Z,36.17
2024-05-09T01:26:06.320Z,36.14
2024-05-09T01:27:06.301Z,36.16
2024-05-09T01:28:06.307Z,36.18
2024-05-09T01:29:06.324Z,36.16
2024-05-09T01:30:09.539Z,36.14
2024-05-09T01:31:07.296Z,36.17
2024-05-09T01:32:06.355Z,36.18
2024-05-09T01:33:08.213Z,36.17
2024-05-09T01:34:06.318Z,36.17
2024-05-09T01:35:06.279Z,36.14
2024-05-09T01:36:06.283Z,36.14
2024-05-09T01:37:06.321Z,36.14
2024-05-09T01:38:06.459Z,36.14
2024-05-09T01:39:06.286Z,36.15
2024-05-09T01:40:09.703Z,36.15
2024-05-09T01:41:07.365Z,36.17
2024-05-09T01:42:06.272Z,36.14
2024-05-09T01:43:06.376Z,36.12
2024-05-09T01:44:06.304Z,36.12
2024-05-09T01:45:06.295Z,36.16
2024-05-09T01:46:06.290Z,36.14
2024-05-09T01:47:06.452Z,36.15
2024-05-09T01:48:06.704Z,36.15
2024-05-09T01:49:06.492Z,36.16
2024-05-09T01:50:09.070Z,36.14
2024-05-09T01:51:06.336Z,36.14
2024-05-09T01:52:06.311Z,36.14
2024-05-09T01:53:06.360Z,36.16
2024-05-09T01:54:06.310Z,36.16
2024-05-09T01:55:06.879Z,36.14
2024-05-09T01:56:06.348Z,36.14
2024-05-09T01:57:06.318Z,36.15
2024-05-09T01:58:06.355Z,36.14
2024-05-09T01:59:06.396Z,36.13
2024-05-09T02:00:07.914Z,36.14
2024-05-09T02:01:06.336Z,36.12
2024-05-09T02:02:06.414Z,36.15
2024-05-09T02:03:06.469Z,36.14
2024-05-09T02:04:06.859Z,36.12
2024-05-09T02:05:06.482Z,36.14
2024-05-09T02:06:06.552Z,36.15
2024-05-09T02:07:06.387Z,36.14
2024-05-09T02:08:06.484Z,36.13
2024-05-09T02:09:06.443Z,36.16
2024-05-09T02:10:13.672Z,36.16
2024-05-09T02:11:07.516Z,36.14
2024-05-09T02:12:06.714Z,36.13
2024-05-09T02:13:06.483Z,36.10
2024-05-09T02:14:06.490Z,36.10
2024-05-09T02:15:06.489Z,36.10
2024-05-09T02:16:06.500Z,36.09
2024-05-09T02:17:06.572Z,36.10
2024-05-09T02:18:06.689Z,36.12
2024-05-09T02:19:06.663Z,36.12
2024-05-09T02:20:06.646Z,36.13
2024-05-09T02:21:06.749Z,36.09
2024-05-09T02:22:06.637Z,36.12
2024-05-09T02:23:07.228Z,36.11
2024-05-09T02:24:06.757Z,36.13
2024-05-09T02:25:06.787Z,36.10
2024-05-09T02:26:06.951Z,36.11
2024-05-09T02:27:06.928Z,36.13
2024-05-09T02:28:06.987Z,36.11
2024-05-09T02:29:07.079Z,36.13
2024-05-09T02:30:18.348Z,36.13
2024-05-09T02:31:08.096Z,36.11
2024-05-09T02:32:07.156Z,36.15
2024-05-09T02:33:07.645Z,36.14
2024-05-09T02:34:07.238Z,36.13
2024-05-09T02:35:07.153Z,36.12
2024-05-09T02:36:07.101Z,36.12
2024-05-09T02:37:07.107Z,36.08
2024-05-09T02:38:07.234Z,36.10
2024-05-09T02:39:07.119Z,36.10
2024-05-09T02:40:11.530Z,36.12
2024-05-09T02:41:08.201Z,36.12
2024-05-09T02:42:07.156Z,36.12
2024-05-09T02:43:07.752Z,36.11
2024-05-09T02:44:07.210Z,36.13
2024-05-09T02:45:07.157Z,36.11
2024-05-09T02:46:07.180Z,36.10
2024-05-09T02:47:07.442Z,36.11
2024-05-09T02:48:07.586Z,36.10
2024-05-09T02:49:07.469Z,36.13
2024-05-09T02:50:08.262Z,36.11
2024-05-09T02:51:07.441Z,36.08
2024-05-09T02:52:07.309Z,36.08
2024-05-09T02:53:07.649Z,36.12
2024-05-09T02:54:07.450Z,36.09
2024-05-09T02:55:07.528Z,36.11
2024-05-09T02:56:07.614Z,36.08
2024-05-09T02:57:07.643Z,36.11
2024-05-09T02:58:07.706Z,36.09
2024-05-09T02:59:07.759Z,36.12
2024-05-09T03:00:12.251Z,36.09
2024-05-09T03:01:08.935Z,36.12
2024-05-09T03:02:07.898Z,36.07
2024-05-09T03:03:08.765Z,36.10
2024-05-09T03:04:08.018Z,36.10
2024-05-09T03:05:07.854Z,36.12
2024-05-09T03:06:07.813Z,36.09
2024-05-09T03:07:07.827Z,36.10
2024-05-09T03:08:08.011Z,36.14
2024-05-09T03:09:07.847Z,36.12
2024-05-09T03:10:14.924Z,36.12
2024-05-09T03:11:09.012Z,36.13
2024-05-09T03:12:08.022Z,36.09
2024-05-09T03:13:08.047Z,36.12
2024-05-09T03:14:07.953Z,36.11
2024-05-09T03:15:07.926Z,36.11
2024-05-09T03:16:07.920Z,36.11
2024-05-09T03:17:07.943Z,36.09
2024-05-09T03:18:08.111Z,36.10
2024-05-09T03:19:07.948Z,36.09
2024-05-09T03:20:17.015Z,36.09
2024-05-09T03:21:09.072Z,36.12
2024-05-09T03:22:07.968Z,36.06
2024-05-09T03:23:09.225Z,36.07
2024-05-09T03:24:07.997Z,36.05
2024-05-09T03:25:07.999Z,36.06
2024-05-09T03:26:07.980Z,36.07
2024-05-09T03:27:07.966Z,36.10
2024-05-09T03:28:08.038Z,36.12
2024-05-09T03:29:08.120Z,36.09
2024-05-09T03:30:09.939Z,36.09
2024-05-09T03:31:08.181Z,36.05
2024-05-09T03:32:08.428Z,36.05
2024-05-09T03:33:08.491Z,36.09
2024-05-09T03:34:08.432Z,36.07
2024-05-09T03:35:08.462Z,36.06
2024-05-09T03:36:11.069Z,36.08
2024-05-09T03:37:08.487Z,36.07
2024-05-09T03:38:08.553Z,36.12
2024-05-09T03:39:08.495Z,36.08
2024-05-09T03:40:14.462Z,36.07
2024-05-09T03:41:09.575Z,36.11
2024-05-09T03:42:08.509Z,36.09
2024-05-09T03:43:08.527Z,36.09
2024-05-09T03:44:08.594Z,36.08
2024-05-09T03:45:08.545Z,36.07
2024-05-09T03:46:08.547Z,36.06
2024-05-09T03:47:08.533Z,36.08
2024-05-09T03:48:08.902Z,36.05
2024-05-09T03:49:08.638Z,36.07
2024-05-09T03:50:15.173Z,36.05
2024-05-09T03:51:09.834Z,36.07
2024-05-09T03:52:08.636Z,36.07
2024-05-09T03:53:08.675Z,36.08
2024-05-09T03:54:08.645Z,36.07
2024-05-09T03:55:08.643Z,36.06
2024-05-09T03:56:08.692Z,36.08
2024-05-09T03:57:08.663Z,36.06
2024-05-09T03:58:08.712Z,36.04
2024-05-09T03:59:08.716Z,36.06
2024-05-09T04:00:17.735Z,36.05
2024-05-09T04:01:09.808Z,36.06
2024-05-09T04:02:08.887Z,36.06
2024-05-09T04:03:11.289Z,36.03
2024-05-09T04:04:08.924Z,36.14
2024-05-09T04:05:08.819Z,36.09
2024-05-09T04:06:08.798Z,36.09
2024-05-09T04:07:08.793Z,36.08
2024-05-09T04:08:08.957Z,36.10
2024-05-09T04:09:08.747Z,36.11
2024-05-09T04:10:11.301Z,36.10
2024-05-09T04:11:09.919Z,36.13
2024-05-09T04:12:08.814Z,36.14
2024-05-09T04:13:08.782Z,36.15
2024-05-09T04:14:08.842Z,36.13
2024-05-09T04:15:12.150Z,36.15
2024-05-09T04:16:08.804Z,36.16
2024-05-09T04:17:08.939Z,36.18
2024-05-09T04:18:08.961Z,36.16
2024-05-09T04:19:08.940Z,36.16
2024-05-09T04:20:12.421Z,36.17
2024-05-09T04:21:09.925Z,36.21
2024-05-09T04:22:08.791Z,36.21
2024-05-09T04:23:09.541Z,36.17
2024-05-09T04:24:16.758Z,36.23
2024-05-09T04:25:16.800Z,36.22
2024-05-09T04:26:16.847Z,36.23
2024-05-09T04:27:16.866Z,36.20
2024-05-09T04:28:16.766Z,36.21
2024-05-09T04:29:16.855Z,36.19
2024-05-09T04:30:25.518Z,36.20
2024-05-09T04:31:28.791Z,36.29
2024-05-09T04:32:28.888Z,36.27
2024-05-09T04:33:28.935Z,36.25
2024-05-09T04:34:28.872Z,36.22
2024-05-09T04:35:28.837Z,36.20
2024-05-09T04:36:28.811Z,36.18
2024-05-09T04:37:28.794Z,36.22
2024-05-09T04:38:28.821Z,36.22
2024-05-09T04:39:28.777Z,36.19
2024-05-09T04:40:33.939Z,36.17
2024-05-09T04:41:29.932Z,36.18
2024-05-09T04:42:28.786Z,36.18
2024-05-09T04:43:28.799Z,36.16
2024-05-09T04:44:28.937Z,36.16
2024-05-09T04:45:28.826Z,36.13
2024-05-09T04:46:28.799Z,36.13
2024-05-09T04:47:28.959Z,36.15
2024-05-09T04:48:29.000Z,36.13
2024-05-09T04:49:28.910Z,36.12
2024-05-09T04:50:35.950Z,36.08
2024-05-09T04:51:29.820Z,36.12
2024-05-09T04:52:28.802Z,36.08
2024-05-09T04:53:28.857Z,36.07
2024-05-09T04:54:35.829Z,36.10
2024-05-09T04:55:29.794Z,36.07
2024-05-09T04:56:28.901Z,36.06
2024-05-09T04:57:28.835Z,36.05
2024-05-09T04:58:28.865Z,36.03
2024-05-09T04:59:28.856Z,36.04
2024-05-09T05:00:35.427Z,36.03
2024-05-09T05:01:29.989Z,36.02
2024-05-09T05:02:28.901Z,36.00
2024-05-09T05:03:29.071Z,35.98
2024-05-09T05:04:28.884Z,35.99
2024-05-09T05:05:28.895Z,35.97
2024-05-09T05:06:28.824Z,35.97
2024-05-09T05:07:28.836Z,35.97
2024-05-09T05:08:28.835Z,35.96
2024-05-09T05:09:28.849Z,35.96
2024-05-09T05:10:35.035Z,35.95
2024-05-09T05:11:30.020Z,35.97
2024-05-09T05:12:28.994Z,35.96
2024-05-09T05:13:28.935Z,35.92
2024-05-09T05:14:29.106Z,35.91
2024-05-09T05:15:28.954Z,35.92
2024-05-09T05:16:28.943Z,35.92
2024-05-09T05:17:29.118Z,35.90
2024-05-09T05:18:29.242Z,35.90
2024-05-09T05:19:29.183Z,35.89
2024-05-09T05:20:33.548Z,35.88
2024-05-09T05:21:30.184Z,35.89
2024-05-09T05:22:29.094Z,35.89
2024-05-09T05:23:29.180Z,35.87
2024-05-09T05:24:29.085Z,35.85
2024-05-09T05:25:29.085Z,35.83
2024-05-09T05:26:29.073Z,35.85
2024-05-09T05:27:29.072Z,35.83
2024-05-09T05:28:29.144Z,35.83
2024-05-09T05:29:29.205Z,35.82
2024-05-09T05:30:34.318Z,35.82
2024-05-09T05:31:30.265Z,35.82
2024-05-09T05:32:29.437Z,35.81
2024-05-09T05:33:29.385Z,35.80
2024-05-09T05:34:29.294Z,35.77
2024-05-09T05:35:29.373Z,35.78
2024-05-09T05:36:29.238Z,35.78
2024-05-09T05:37:29.237Z,35.76
2024-05-09T05:38:29.306Z,35.76
2024-05-09T05:39:29.229Z,35.75
2024-05-09T05:40:36.076Z,35.78
2024-05-09T05:41:30.383Z,35.78
2024-05-09T05:42:29.321Z,35.75
2024-05-09T05:43:29.273Z,35.76
2024-05-09T05:44:29.334Z,35.74
2024-05-09T05:45:29.289Z,35.73
2024-05-09T05:46:29.284Z,35.73
2024-05-09T05:47:29.379Z,35.70
2024-05-09T05:48:29.385Z,35.71
2024-05-09T05:49:29.402Z,35.70
2024-05-09T05:50:35.485Z,35.67
2024-05-09T05:51:30.361Z,35.68
2024-05-09T05:52:29.333Z,35.67
2024-05-09T05:53:29.428Z,35.64
2024-05-09T05:54:29.345Z,35.62
2024-05-09T05:55:29.350Z,35.59
2024-05-09T05:56:29.371Z,35.59
2024-05-09T05:57:29.475Z,35.56
2024-05-09T05:58:29.347Z,35.53
2024-05-09T05:59:29.536Z,35.50
2024-05-09T06:00:35.519Z,35.49
2024-05-09T06:01:30.463Z,35.47
2024-05-09T06:02:29.447Z,35.47
2024-05-09T06:03:29.610Z,35.40
2024-05-09T06:04:29.414Z,35.40
2024-05-09T06:05:29.465Z,35.36
2024-05-09T06:06:29.393Z,35.32
2024-05-09T06:07:29.407Z,35.31
2024-05-09T06:08:30.544Z,35.28
2024-05-09T06:09:29.384Z,35.26
2024-05-09T06:10:35.223Z,35.24
2024-05-09T06:11:30.503Z,35.22
2024-05-09T06:12:29.498Z,35.20
2024-05-09T06:13:29.409Z,35.19
2024-05-09T06:14:29.534Z,35.20
2024-05-09T06:15:29.443Z,35.16
2024-05-09T06:16:29.396Z,35.12
2024-05-09T06:17:29.570Z,35.06
2024-05-09T06:18:29.591Z,35.00
2024-05-09T06:19:29.508Z,34.91
2024-05-09T06:20:35.336Z,34.79
2024-05-09T06:21:30.465Z,34.66
2024-05-09T06:22:29.403Z,34.51
2024-05-09T06:23:29.437Z,34.33
2024-05-09T06:24:29.415Z,34.19
2024-05-09T06:25:29.440Z,34.09
2024-05-09T06:26:29.531Z,34.00
2024-05-09T06:27:29.410Z,33.94
2024-05-09T06:28:29.448Z,33.93
2024-05-09T06:29:29.490Z,33.88
2024-05-09T06:30:37.080Z,33.95
2024-05-09T06:31:30.438Z,34.01
2024-05-09T06:32:29.549Z,34.01
2024-05-09T06:33:29.810Z,34.02
2024-05-09T06:34:29.486Z,34.03
2024-05-09T06:35:29.573Z,33.97
2024-05-09T06:36:29.425Z,33.94
2024-05-09T06:37:29.423Z,33.92
2024-05-09T06:38:29.473Z,33.91
2024-05-09T06:39:29.434Z,33.88
2024-05-09T06:40:36.374Z,33.84
2024-05-09T06:41:30.542Z,33.79
2024-05-09T06:42:29.444Z,33.76
2024-05-09T06:43:29.450Z,33.73
2024-05-09T06:44:29.607Z,33.73
2024-05-09T06:45:29.442Z,33.73
2024-05-09T06:46:29.479Z,33.71
2024-05-09T06:47:29.583Z,33.68
2024-05-09T06:48:29.647Z,33.72
2024-05-09T06:49:29.467Z,33.69
2024-05-09T06:50:35.759Z,33.72
2024-05-09T06:51:30.461Z,33.74
2024-05-09T06:52:29.459Z,33.76
2024-05-09T06:53:29.632Z,33.76
2024-05-09T06:54:29.459Z,33.75
2024-05-09T06:55:29.443Z,33.74
2024-05-09T06:56:29.458Z,33.74
2024-05-09T06:57:29.438Z,33.74
2024-05-09T06:58:29.458Z,33.74
2024-05-09T06:59:29.585Z,33.77
2024-05-09T07:00:35.852Z,33.81
2024-05-09T07:01:30.526Z,33.85
2024-05-09T07:02:29.534Z,33.85
2024-05-09T07:03:29.616Z,33.87
2024-05-09T07:04:29.580Z,33.85
2024-05-09T07:05:29.520Z,33.86
2024-05-09T07:06:29.505Z,33.87
2024-05-09T07:07:29.462Z,33.86
2024-05-09T07:08:29.523Z,33.86
2024-05-09T07:09:29.455Z,33.86
2024-05-09T07:10:34.770Z,33.85
2024-05-09T07:11:30.605Z,33.86
2024-05-09T07:12:29.597Z,33.83
2024-05-09T07:13:29.454Z,33.81
2024-05-09T07:14:29.688Z,33.82
2024-05-09T07:15:29.460Z,33.78
2024-05-09T07:16:29.467Z,33.75
2024-05-09T07:17:29.717Z,33.75
2024-05-09T07:18:29.785Z,33.70
2024-05-09T07:19:29.596Z,33.66
2024-05-09T07:20:34.493Z,33.62
2024-05-09T07:21:30.495Z,33.61
2024-05-09T07:22:29.514Z,33.57
2024-05-09T07:23:29.519Z,33.50
2024-05-09T07:24:29.483Z,33.51
2024-05-09T07:25:29.722Z,33.45
2024-05-09T07:26:29.532Z,33.44
2024-05-09T07:27:29.504Z,33.42
2024-05-09T07:28:29.508Z,33.41
2024-05-09T07:29:29.606Z,33.37
2024-05-09T07:30:33.385Z,33.35
2024-05-09T07:31:30.615Z,33.34
2024-05-09T07:32:29.719Z,33.33
2024-05-09T07:33:29.771Z,33.30
2024-05-09T07:34:29.661Z,33.28
2024-05-09T07:35:29.791Z,33.26
2024-05-09T07:36:29.578Z,33.21
2024-05-09T07:37:29.609Z,33.21
2024-05-09T07:38:29.754Z,33.17
2024-05-09T07:39:29.623Z,33.11
2024-05-09T07:40:35.639Z,33.11
2024-05-09T07:41:30.794Z,33.10
2024-05-09T07:42:29.647Z,33.08
2024-05-09T07:43:29.639Z,33.06
2024-05-09T07:44:29.786Z,33.05
2024-05-09T07:45:45.835Z,33.06
2024-05-09T07:47:37.002Z,33.08
2024-05-09T07:48:57.294Z,33.09
2024-05-09T07:50:01.224Z,33.10
2024-05-09T07:53:08.519Z,33.04
2024-05-09T07:53:32.638Z,33.03
2024-05-09T07:53:40.545Z,33.00
2024-05-09T07:54:30.842Z,33.02
2024-05-09T07:55:29.927Z,32.98
2024-05-09T07:56:30.075Z,32.96
2024-05-09T07:57:29.709Z,32.96
2024-05-09T07:58:29.679Z,32.93
2024-05-09T07:59:30.100Z,32.90
2024-05-09T08:00:31.814Z,32.89
2024-05-09T08:01:29.895Z,32.86
2024-05-09T08:02:29.965Z,32.85
2024-05-09T08:03:29.896Z,32.86
2024-05-09T08:04:30.059Z,32.87
2024-05-09T08:05:30.090Z,32.82
2024-05-09T08:06:29.916Z,32.85
2024-05-09T08:07:29.872Z,32.85
2024-05-09T08:08:29.932Z,32.84
2024-05-09T08:09:29.951Z,32.82
2024-05-09T08:10:29.992Z,32.85
2024-05-09T08:11:30.078Z,32.83
2024-05-09T08:12:30.074Z,32.83
2024-05-09T08:13:30.012Z,32.82
2024-05-09T08:14:30.076Z,32.81
2024-05-09T08:15:30.111Z,32.81
2024-05-09T08:16:30.230Z,32.76
2024-05-09T08:17:30.210Z,32.78
2024-05-09T08:18:30.538Z,32.78
2024-05-09T08:19:30.209Z,32.76
2024-05-09T08:20:33.727Z,32.74
2024-05-09T08:21:31.310Z,32.80
2024-05-09T08:22:30.275Z,32.76
2024-05-09T08:23:30.283Z,32.78
2024-05-09T08:24:30.409Z,32.76
2024-05-09T08:25:30.305Z,32.72
2024-05-09T08:26:30.303Z,32.72
2024-05-09T08:27:30.361Z,32.68
2024-05-09T08:28:30.355Z,32.65
2024-05-09T08:29:30.320Z,32.61
2024-05-09T08:30:36.365Z,32.60
2024-05-09T08:31:31.534Z,32.54
2024-05-09T08:32:30.461Z,32.51
2024-05-09T08:33:30.526Z,32.50
2024-05-09T08:34:30.442Z,32.48
2024-05-09T08:35:30.370Z,32.47
2024-05-09T08:36:30.459Z,32.44
2024-05-09T08:37:35.007Z,32.40
2024-05-09T08:38:31.405Z,32.39
2024-05-09T08:39:30.409Z,32.41
2024-05-09T08:40:35.012Z,32.37
2024-05-09T08:41:31.376Z,32.34
2024-05-09T08:42:30.436Z,32.33
2024-05-09T08:43:30.422Z,32.33
2024-05-09T08:44:30.427Z,32.31
2024-05-09T08:45:30.549Z,32.31
2024-05-09T08:46:30.462Z,32.28
2024-05-09T08:47:30.479Z,32.28
2024-05-09T08:48:30.641Z,32.30
2024-05-09T08:49:30.588Z,32.30
2024-05-09T08:50:37.864Z,32.30
2024-05-09T08:51:31.426Z,32.28
2024-05-09T08:52:30.448Z,32.28
2024-05-09T08:53:30.382Z,32.28
2024-05-09T08:54:30.521Z,32.29
2024-05-09T08:55:30.410Z,32.31
2024-05-09T08:56:30.412Z,32.30
2024-05-09T08:57:30.451Z,32.31
2024-05-09T08:58:30.418Z,32.27
2024-05-09T08:59:30.428Z,32.31
2024-05-09T09:00:36.567Z,32.29
2024-05-09T09:01:31.513Z,32.28
2024-05-09T09:02:30.629Z,32.30
2024-05-09T09:03:30.761Z,32.31
2024-05-09T09:04:30.649Z,32.31
2024-05-09T09:05:30.633Z,32.32
2024-05-09T09:06:30.495Z,32.29
2024-05-09T09:07:30.493Z,32.29
2024-05-09T09:08:30.443Z,32.27
2024-05-09T09:09:30.497Z,32.28
2024-05-09T09:10:32.503Z,32.29
2024-05-09T09:11:30.504Z,32.22
2024-05-09T09:12:30.479Z,32.25
2024-05-09T09:13:30.441Z,32.24
2024-05-09T09:14:30.435Z,32.25
2024-05-09T09:15:30.477Z,32.23
2024-05-09T09:16:30.516Z,32.23
2024-05-09T09:17:30.552Z,32.20
2024-05-09T09:18:31.044Z,32.15
2024-05-09T09:19:30.521Z,32.19
2024-05-09T09:20:36.215Z,32.16
2024-05-09T09:21:31.508Z,32.26
2024-05-09T09:22:30.455Z,32.20
2024-05-09T09:23:30.791Z,32.25
2024-05-09T09:24:30.475Z,32.21
2024-05-09T09:25:30.452Z,32.16
2024-05-09T09:26:30.458Z,32.22
2024-05-09T09:27:30.520Z,32.19
2024-05-09T09:28:30.463Z,32.17
2024-05-09T09:29:30.450Z,32.14
2024-05-09T09:30:36.583Z,32.14
2024-05-09T09:31:31.548Z,32.15
2024-05-09T09:32:30.603Z,32.16
2024-05-09T09:33:30.515Z,32.12
2024-05-09T09:34:30.645Z,32.13
2024-05-09T09:35:30.480Z,32.10
2024-05-09T09:36:30.484Z,32.06
2024-05-09T09:37:30.487Z,32.03
2024-05-09T09:38:30.492Z,32.03
2024-05-09T09:39:30.514Z,32.04
2024-05-09T09:40:32.959Z,32.01
2024-05-09T09:41:30.485Z,32.00
2024-05-09T09:42:30.507Z,32.00
2024-05-09T09:43:30.472Z,31.99
2024-05-09T09:44:30.527Z,32.01
2024-05-09T09:45:30.547Z,31.99
2024-05-09T09:46:30.505Z,31.99
2024-05-09T09:47:30.616Z,32.01
2024-05-09T09:48:30.726Z,32.04
2024-05-09T09:49:30.482Z,32.02
2024-05-09T09:50:34.474Z,31.99
2024-05-09T09:51:30.524Z,31.99
2024-05-09T09:52:30.504Z,32.01
2024-05-09T09:53:30.455Z,32.04
2024-05-09T09:54:30.538Z,32.01
2024-05-09T09:55:30.483Z,32.02
2024-05-09T09:56:30.504Z,32.01
2024-05-09T09:57:30.478Z,32.00
2024-05-09T09:58:30.573Z,32.04
2024-05-09T09:59:30.481Z,32.03
2024-05-09T10:00:33.209Z,32.02
2024-05-09T10:01:30.549Z,32.04
2024-05-09T10:02:30.689Z,32.02
2024-05-09T10:03:30.628Z,32.01
2024-05-09T10:04:30.558Z,31.99
2024-05-09T10:05:30.965Z,32.00
2024-05-09T10:06:30.598Z,31.99
2024-05-09T10:07:30.485Z,31.98
2024-05-09T10:08:30.489Z,32.00
2024-05-09T10:09:30.519Z,32.00
2024-05-09T10:10:32.880Z,32.01
2024-05-09T10:11:31.669Z,32.01
2024-05-09T10:12:30.573Z,32.00
2024-05-09T10:13:30.527Z,31.99
2024-05-09T10:14:30.565Z,32.00
2024-05-09T10:15:30.681Z,32.01
2024-05-09T10:16:30.709Z,32.00
2024-05-09T10:17:30.793Z,32.03
2024-05-09T10:18:32.730Z,32.01
2024-05-09T10:19:30.886Z,32.03
2024-05-09T10:20:32.800Z,31.99
2024-05-09T10:21:30.850Z,31.96
2024-05-09T10:22:30.800Z,31.96
2024-05-09T10:23:30.831Z,31.97
2024-05-09T10:24:30.909Z,31.96
2024-05-09T10:25:31.011Z,31.95
2024-05-09T10:26:30.970Z,31.94
2024-05-09T10:27:31.135Z,31.92
2024-05-09T10:28:31.113Z,31.92
2024-05-09T10:29:31.172Z,31.89
2024-05-09T10:30:35.903Z,31.91
2024-05-09T10:31:32.318Z,31.89
2024-05-09T10:32:31.306Z,31.86
2024-05-09T10:33:31.311Z,31.86
2024-05-09T10:34:31.288Z,31.87
2024-05-09T10:35:31.234Z,31.84
2024-05-09T10:36:31.331Z,31.86
2024-05-09T10:37:31.307Z,31.85
2024-05-09T10:38:31.264Z,31.83
2024-05-09T10:39:31.380Z,31.83
2024-05-09T10:40:32.084Z,31.82
2024-05-09T10:41:31.434Z,31.83
2024-05-09T10:42:31.536Z,31.80
2024-05-09T10:43:31.555Z,31.82
2024-05-09T10:44:31.662Z,31.83
2024-05-09T10:45:31.706Z,31.81
2024-05-09T10:46:31.839Z,31.81
2024-05-09T10:47:31.934Z,31.80
2024-05-09T10:48:31.952Z,31.79
2024-05-09T10:49:32.061Z,31.80
2024-05-09T10:50:34.356Z,31.80
2024-05-09T10:51:32.035Z,31.81
2024-05-09T10:52:32.023Z,31.81
2024-05-09T10:53:32.017Z,31.81
2024-05-09T10:54:32.064Z,31.81
2024-05-09T10:55:32.084Z,31.76
2024-05-09T10:56:32.059Z,31.78
2024-05-09T10:57:32.040Z,31.76
2024-05-09T10:58:32.035Z,31.76
2024-05-09T10:59:32.016Z,31.75
2024-05-09T11:00:35.881Z,31.75
2024-05-09T11:01:32.112Z,31.73
2024-05-09T11:02:32.278Z,31.73
2024-05-09T11:03:32.349Z,31.72
2024-05-09T11:04:32.109Z,31.73
2024-05-09T11:05:32.149Z,31.71
2024-05-09T11:06:32.051Z,31.71
2024-05-09T11:07:32.060Z,31.71
2024-05-09T11:08:32.083Z,31.69
2024-05-09T11:09:32.051Z,31.67
2024-05-09T11:10:34.312Z,31.67
2024-05-09T11:11:32.116Z,31.66
2024-05-09T11:12:32.082Z,31.65
2024-05-09T11:13:32.314Z,31.66
2024-05-09T11:14:32.045Z,31.65
2024-05-09T11:15:32.112Z,31.65
2024-05-09T11:16:32.066Z,31.64
2024-05-09T11:17:32.130Z,31.63
2024-05-09T11:18:35.511Z,31.62
2024-05-09T11:19:33.216Z,31.63
2024-05-09T11:20:35.014Z,31.62
2024-05-09T11:21:32.138Z,31.61
2024-05-09T11:22:32.064Z,31.59
2024-05-09T11:23:32.070Z,31.59
2024-05-09T11:24:32.072Z,31.61
2024-05-09T11:25:32.047Z,31.59
2024-05-09T11:26:32.049Z,31.62
2024-05-09T11:27:32.109Z,31.62
2024-05-09T11:28:32.113Z,31.61
2024-05-09T11:29:32.075Z,31.62
2024-05-09T11:30:32.746Z,31.63
2024-05-09T11:31:32.159Z,31.62
2024-05-09T11:32:32.164Z,31.60
2024-05-09T11:33:32.191Z,31.60
2024-05-09T11:34:32.137Z,31.59
2024-05-09T11:35:32.075Z,31.60
2024-05-09T11:36:32.190Z,31.59
2024-05-09T11:37:34.659Z,31.59
2024-05-09T11:38:32.062Z,31.63
2024-05-09T11:39:32.131Z,31.62
2024-05-09T11:40:34.371Z,31.64
2024-05-09T11:41:32.082Z,31.64
2024-05-09T11:42:32.173Z,31.64
2024-05-09T11:43:32.258Z,31.63
2024-05-09T11:44:32.067Z,31.64
2024-05-09T11:45:32.119Z,31.61
2024-05-09T11:46:32.054Z,31.63
2024-05-09T11:47:32.144Z,31.64
2024-05-09T11:48:32.495Z,31.62
2024-05-09T11:49:32.206Z,31.61
2024-05-09T11:50:35.490Z,31.60
2024-05-09T11:51:32.169Z,31.59
2024-05-09T11:52:32.079Z,31.59
2024-05-09T11:53:32.067Z,31.62
2024-05-09T11:54:32.157Z,31.58
2024-05-09T11:55:32.128Z,31.56
2024-05-09T11:56:32.099Z,31.53
2024-05-09T11:57:32.167Z,31.55
2024-05-09T11:58:32.091Z,31.53
2024-05-09T11:59:32.063Z,31.52
2024-05-09T12:00:36.745Z,31.50
2024-05-09T12:01:33.229Z,31.51
2024-05-09T12:02:32.175Z,31.51
2024-05-09T12:03:32.328Z,31.50
2024-05-09T12:04:32.331Z,31.48
2024-05-09T12:05:32.297Z,31.48
2024-05-09T12:06:32.162Z,31.46
2024-05-09T12:07:32.212Z,31.44
2024-05-09T12:08:32.159Z,31.44
2024-05-09T12:09:32.166Z,31.43
2024-05-09T12:10:34.771Z,31.43
2024-05-09T12:11:32.258Z,31.43
2024-05-09T12:12:33.469Z,31.43
2024-05-09T12:13:32.367Z,31.42
2024-05-09T12:14:32.370Z,31.40
2024-05-09T12:15:32.445Z,31.42
2024-05-09T12:16:32.631Z,31.38
2024-05-09T12:17:32.503Z,31.39
2024-05-09T12:18:32.500Z,31.40
2024-05-09T12:19:32.539Z,31.39
2024-05-09T12:20:36.914Z,31.37
2024-05-09T12:21:33.449Z,31.40
2024-05-09T12:22:32.466Z,31.39
2024-05-09T12:23:32.445Z,31.39
2024-05-09T12:24:32.497Z,31.38
2024-05-09T12:25:32.412Z,31.41
2024-05-09T12:26:32.429Z,31.38
2024-05-09T12:27:32.459Z,31.40
2024-05-09T12:28:32.502Z,31.39
2024-05-09T12:29:33.345Z,31.41
2024-05-09T12:30:37.403Z,31.40
2024-05-09T12:31:33.547Z,31.42
2024-05-09T12:32:32.491Z,31.44
2024-05-09T12:33:32.578Z,31.43
2024-05-09T12:34:32.460Z,31.47
2024-05-09T12:35:32.469Z,31.48
2024-05-09T12:36:32.473Z,31.49
2024-05-09T12:37:32.428Z,31.51
2024-05-09T12:38:32.466Z,31.50
2024-05-09T12:39:32.465Z,31.51
2024-05-09T12:40:36.574Z,31.53
2024-05-09T12:41:33.437Z,31.56
2024-05-09T12:42:33.759Z,31.55
2024-05-09T12:43:32.515Z,31.56
2024-05-09T12:44:32.435Z,31.58
2024-05-09T12:45:32.682Z,31.58
2024-05-09T12:46:32.528Z,31.59
2024-05-09T12:47:32.538Z,31.59
2024-05-09T12:48:32.541Z,31.60
2024-05-09T12:49:32.623Z,31.62
2024-05-09T12:50:34.287Z,31.61
2024-05-09T12:51:32.470Z,31.63
2024-05-09T12:52:32.473Z,31.63
2024-05-09T12:53:32.468Z,31.62
2024-05-09T12:54:32.472Z,31.63